Time;durP1;ratioP1;P1;durP2;ratioP2;P2;SDS_P1;SDS_P2;PMS_P1;PMS_P2;Temp;Humidity;BMP_temperature;BMP_pressure;BME280_temperature;BME280_humidity;BME280_pressure;Samples;Min_cycle;Max_cycle;Signal;HPM_P1;HPM_P2
2023/12/05 00:02:01;;;;;;;6.05;1.45;;;31.80;64.00;;;;;;5056999;28;20521;-72
2023/12/05 00:04:28;;;;;;;3.05;1.35;;;32.10;63.30;;;;;;5047845;28;20024;-70
2023/12/05 00:06:55;;;;;;;5.38;1.55;;;31.90;63.80;;;;;;5052009;28;20377;-72
2023/12/05 00:09:23;;;;;;;5.25;1.67;;;32.00;62.80;;;;;;5055065;28;20025;-71
2023/12/05 00:11:50;;;;;;;3.67;1.50;;;32.20;64.10;;;;;;5050744;28;20146;-71
2023/12/05 00:14:18;;;;;;;3.40;1.38;;;32.50;61.80;;;;;;5052450;28;20177;-71
2023/12/05 00:16:45;;;;;;;6.60;1.60;;;32.40;62.90;;;;;;5053665;28;20472;-70
2023/12/05 00:19:12;;;;;;;3.80;1.63;;;32.30;61.40;;;;;;5059036;28;20124;-69
2023/12/05 00:21:42;;;;;;;3.05;1.58;;;32.50;62.20;;;;;;5048175;28;20142;-71
2023/12/05 00:24:10;;;;;;;3.90;1.50;;;32.90;62.20;;;;;;5055081;28;20025;-71
2023/12/05 00:26:37;;;;;;;3.40;1.38;;;33.30;61.30;;;;;;5057909;28;20493;-72
2023/12/05 00:29:04;;;;;;;8.70;1.50;;;33.20;59.10;;;;;;5058072;28;20013;-72
2023/12/05 00:31:32;;;;;;;2.80;1.13;;;33.20;60.40;;;;;;5053041;28;20025;-71
2023/12/05 00:33:59;;;;;;;2.30;1.00;;;33.50;60.30;;;;;;5055284;28;20021;-70
2023/12/05 00:36:26;;;;;;;1.60;1.02;;;33.50;58.30;;;;;;5060134;28;20017;-72
2023/12/05 00:38:54;;;;;;;4.47;1.30;;;33.50;56.00;;;;;;5053513;28;20108;-71
2023/12/05 00:41:21;;;;;;;6.35;1.45;;;33.50;58.10;;;;;;5058627;28;20028;-71
2023/12/05 00:43:48;;;;;;;3.83;1.10;;;33.60;56.00;;;;;;5055411;28;20017;-72
2023/12/05 00:46:16;;;;;;;5.15;1.42;;;34.00;55.00;;;;;;5051630;28;20454;-72
2023/12/05 00:48:43;;;;;;;6.05;1.27;;;34.30;55.70;;;;;;5059811;28;20108;-72
2023/12/05 00:51:10;;;;;;;6.45;1.20;;;34.10;55.00;;;;;;5049325;28;20029;-72
2023/12/05 00:53:38;;;;;;;3.92;1.10;;;34.40;55.30;;;;;;5050669;28;20070;-71
2023/12/05 00:56:11;;;;;;;9.10;1.40;;;34.50;53.80;;;;;;5051079;28;20037;-71
2023/12/05 00:58:38;;;;;;;7.18;1.27;;;34.70;53.20;;;;;;5049410;28;20094;-71
2023/12/05 01:01:07;;;;;;;5.28;1.00;;;35.00;52.40;;;;;;5047700;28;20028;-71
2023/12/05 01:03:35;;;;;;;2.85;1.08;;;35.20;51.70;;;;;;5050333;28;20036;-72
2023/12/05 01:06:02;;;;;;;4.05;1.13;;;35.50;49.70;;;;;;5050286;28;20027;-72
2023/12/05 01:08:29;;;;;;;5.28;1.25;;;35.50;50.60;;;;;;5051771;28;20097;-73
2023/12/05 01:10:57;;;;;;;4.07;0.95;;;34.90;49.30;;;;;;5047597;28;20045;-71
2023/12/05 01:13:24;;;;;;;3.08;1.23;;;35.00;49.00;;;;;;5045465;28;20025;-72
2023/12/05 01:15:52;;;;;;;2.63;1.13;;;35.30;51.40;;;;;;5049927;28;20023;-71
2023/12/05 01:18:19;;;;;;;3.67;1.20;;;35.40;49.40;;;;;;5044297;28;20474;-72
2023/12/05 01:20:46;;;;;;;3.90;1.00;;;35.50;48.70;;;;;;5048394;28;20120;-71
2023/12/05 01:23:14;;;;;;;4.97;1.00;;;35.60;49.70;;;;;;5047183;28;20104;-72
2023/12/05 01:25:41;;;;;;;1.67;1.05;;;35.80;47.20;;;;;;5041778;28;20367;-72
2023/12/05 01:28:08;;;;;;;4.20;0.90;;;36.00;44.80;;;;;;5052906;28;20024;-72
2023/12/05 01:30:36;;;;;;;3.03;1.10;;;36.20;47.40;;;;;;5050030;28;20033;-72
2023/12/05 01:33:03;;;;;;;3.85;1.08;;;36.50;45.80;;;;;;5049400;28;20017;-73
2023/12/05 01:35:31;;;;;;;2.03;1.08;;;36.40;44.70;;;;;;5050848;28;20472;-72
2023/12/05 01:37:58;;;;;;;2.58;0.80;;;36.40;45.00;;;;;;5051028;28;20063;-72
2023/12/05 01:40:26;;;;;;;3.53;1.05;;;36.50;40.30;;;;;;5050869;28;20029;-72
2023/12/05 01:42:53;;;;;;;3.85;0.90;;;36.80;40.60;;;;;;5057234;28;20024;-72
2023/12/05 01:45:21;;;;;;;2.97;0.98;;;37.00;42.40;;;;;;5056743;28;20021;-72
2023/12/05 01:47:49;;;;;;;1.67;1.23;;;37.00;42.40;;;;;;5052642;28;20044;-72
2023/12/05 01:50:23;;;;;;;2.70;0.90;;;37.10;41.80;;;;;;5056591;28;20025;-73
2023/12/05 01:52:53;;;;;;;3.63;1.25;;;37.00;41.50;;;;;;5049469;28;20017;-71
2023/12/05 01:55:23;;;;;;;6.35;1.10;;;37.10;41.70;;;;;;5055250;28;20021;-72
2023/12/05 01:57:51;;;;;;;2.40;1.20;;;36.90;42.00;;;;;;5053974;28;20136;-72
2023/12/05 02:00:19;;;;;;;3.25;1.10;;;37.10;45.50;;;;;;5052034;28;20033;-73
2023/12/05 02:02:48;;;;;;;3.33;1.02;;;37.80;44.10;;;;;;5055682;28;20059;-72
2023/12/05 02:05:16;;;;;;;1.65;0.90;;;37.90;42.70;;;;;;5052522;28;20060;-73
2023/12/05 02:07:44;;;;;;;2.97;1.23;;;37.00;43.10;;;;;;5054193;28;20040;-72
2023/12/05 02:10:11;;;;;;;3.60;0.80;;;37.20;43.80;;;;;;5055895;28;21164;-73
2023/12/05 02:12:39;;;;;;;2.03;0.90;;;37.30;42.20;;;;;;5050597;28;20023;-72
2023/12/05 02:15:07;;;;;;;3.72;0.90;;;37.60;42.60;;;;;;5049619;28;20017;-72
2023/12/05 02:18:19;;;;;;;3.92;1.23;;;37.60;41.50;;;;;;5056705;28;20013;-73
2023/12/05 02:21:05;;;;;;;3.58;1.27;;;37.80;42.30;;;;;;5048988;28;20363;-71
2023/12/05 02:23:58;;;;;;;4.13;1.13;;;37.90;41.80;;;;;;5048779;28;20037;-71
2023/12/05 02:26:35;;;;;;;4.45;1.15;;;38.00;41.30;;;;;;5053869;28;20373;-72
2023/12/05 02:29:03;;;;;;;2.28;1.00;;;38.10;41.30;;;;;;5050566;28;20412;-71
2023/12/05 02:31:31;;;;;;;3.47;0.95;;;38.00;41.00;;;;;;5051252;28;20021;-72
2023/12/05 02:33:59;;;;;;;4.00;0.90;;;37.60;41.50;;;;;;5054623;28;20029;-72
2023/12/05 02:36:47;;;;;;;3.03;1.20;;;37.90;41.30;;;;;;5045608;28;20492;-73
2023/12/05 02:39:31;;;;;;;2.88;1.17;;;38.10;40.80;;;;;;5053149;28;20032;-72
2023/12/05 02:42:01;;;;;;;3.03;0.88;;;38.10;40.00;;;;;;5052380;28;20049;-72
2023/12/05 02:44:41;;;;;;;2.33;0.88;;;38.50;40.70;;;;;;5043400;28;20035;-72
2023/12/05 02:47:12;;;;;;;3.55;1.10;;;38.80;41.00;;;;;;5050833;28;20423;-72
2023/12/05 02:49:40;;;;;;;5.47;0.90;;;38.90;39.60;;;;;;5043592;28;20048;-72
2023/12/05 02:52:07;;;;;;;3.10;0.90;;;39.30;40.00;;;;;;5044148;28;20028;-71
2023/12/05 02:54:35;;;;;;;2.72;1.08;;;39.50;41.30;;;;;;5049300;28;20055;-73
2023/12/05 02:57:02;;;;;;;4.32;0.80;;;39.40;39.30;;;;;;5041547;28;20036;-73
2023/12/05 02:59:29;;;;;;;4.97;0.98;;;39.40;39.40;;;;;;5044825;28;20050;-72
2023/12/05 03:01:57;;;;;;;1.92;0.80;;;39.30;39.00;;;;;;5044595;28;20037;-72
2023/12/05 03:04:24;;;;;;;2.72;1.10;;;38.90;38.60;;;;;;5043391;28;20025;-72
2023/12/05 03:06:51;;;;;;;2.72;0.90;;;39.10;38.30;;;;;;5047546;28;20025;-73
2023/12/05 03:09:19;;;;;;;2.97;0.95;;;39.00;39.00;;;;;;5045248;28;20026;-73
2023/12/05 03:11:46;;;;;;;1.52;0.90;;;39.10;39.50;;;;;;5050453;28;20493;-73
2023/12/05 03:14:14;;;;;;;2.75;0.98;;;39.20;37.20;;;;;;5048980;28;20033;-73
2023/12/05 03:16:43;;;;;;;3.53;1.13;;;39.10;37.90;;;;;;5047292;28;20089;-74
2023/12/05 03:19:11;;;;;;;3.80;1.40;;;39.20;37.60;;;;;;5051236;28;20040;-73
2023/12/05 03:21:38;;;;;;;3.28;0.77;;;39.30;37.80;;;;;;5051002;28;20032;-72
2023/12/05 03:24:05;;;;;;;3.38;1.00;;;39.50;37.50;;;;;;5046566;28;20496;-72
2023/12/05 03:26:33;;;;;;;4.40;1.00;;;39.80;37.50;;;;;;5054110;28;20398;-72
2023/12/05 03:29:00;;;;;;;3.05;1.35;;;39.90;36.80;;;;;;5056257;28;20032;-72
2023/12/05 03:31:33;;;;;;;5.05;1.00;;;40.00;36.30;;;;;;5052383;28;20032;-72
2023/12/05 03:34:01;;;;;;;5.03;0.93;;;40.00;37.40;;;;;;5048753;28;20521;-71
2023/12/05 03:36:28;;;;;;;4.25;0.93;;;40.10;36.80;;;;;;5056211;28;20040;-71
2023/12/05 03:38:56;;;;;;;6.00;1.00;;;40.00;36.50;;;;;;5050011;28;20083;-74
2023/12/05 03:41:23;;;;;;;3.17;1.00;;;39.90;36.40;;;;;;5064788;28;20488;-73
2023/12/05 03:43:51;;;;;;;5.43;0.95;;;39.80;35.80;;;;;;5050715;28;20115;-73
2023/12/05 03:46:18;;;;;;;2.97;0.98;;;39.80;36.20;;;;;;5046585;28;20029;-73
2023/12/05 03:48:45;;;;;;;2.53;0.70;;;39.60;36.30;;;;;;5047953;28;20163;-73
2023/12/05 03:51:13;;;;;;;2.20;0.80;;;39.40;36.10;;;;;;5050478;28;20033;-72
2023/12/05 03:53:41;;;;;;;4.43;0.93;;;39.60;35.80;;;;;;5054322;28;20503;-73
2023/12/05 03:56:08;;;;;;;5.65;1.10;;;39.60;37.70;;;;;;5049150;28;20033;-73
2023/12/05 03:58:36;;;;;;;1.05;0.60;;;39.80;36.90;;;;;;5053969;28;20453;-73
2023/12/05 04:01:03;;;;;;;2.33;0.80;;;40.30;37.50;;;;;;5052610;28;20120;-73
2023/12/05 04:03:34;;;;;;;3.40;0.80;;;40.50;36.40;;;;;;5051020;28;20095;-73
2023/12/05 04:06:02;;;;;;;3.05;0.90;;;40.70;35.60;;;;;;5053164;28;20036;-73
2023/12/05 04:08:30;;;;;;;2.83;1.02;;;40.70;37.10;;;;;;5048086;28;20139;-73
2023/12/05 04:10:57;;;;;;;2.10;0.82;;;40.60;35.60;;;;;;5049701;28;20109;-72
2023/12/05 04:13:24;;;;;;;4.25;0.95;;;40.50;35.30;;;;;;5053253;28;20118;-72
2023/12/05 04:15:52;;;;;;;5.35;1.05;;;40.70;36.00;;;;;;5045681;28;20112;-72
2023/12/05 04:18:19;;;;;;;2.47;0.68;;;40.60;35.20;;;;;;5051083;28;20044;-72
2023/12/05 04:20:46;;;;;;;2.47;0.80;;;40.80;36.40;;;;;;5050061;28;20477;-72
2023/12/05 04:23:13;;;;;;;6.25;1.00;;;41.00;36.40;;;;;;5046009;28;20071;-72
2023/12/05 04:25:41;;;;;;;3.72;0.90;;;41.00;37.80;;;;;;5044841;28;20028;-71
2023/12/05 04:28:08;;;;;;;5.28;1.38;;;41.20;36.30;;;;;;5057001;28;20393;-72
2023/12/05 04:30:36;;;;;;;4.25;1.10;;;41.30;35.90;;;;;;5041360;28;20554;-72
2023/12/05 04:33:03;;;;;;;1.80;0.88;;;41.30;35.80;;;;;;5048504;28;20368;-72
2023/12/05 04:35:30;;;;;;;2.50;0.85;;;41.00;35.10;;;;;;5050736;28;20425;-72
2023/12/05 04:37:58;;;;;;;3.70;1.02;;;40.70;35.60;;;;;;5048015;28;20033;-72
2023/12/05 04:40:25;;;;;;;4.50;0.90;;;40.40;35.40;;;;;;5057470;28;20119;-73
2023/12/05 04:42:53;;;;;;;2.80;0.70;;;40.20;35.60;;;;;;5050978;28;20025;-72
2023/12/05 04:45:20;;;;;;;3.38;1.20;;;40.00;36.00;;;;;;5047902;28;20023;-71
2023/12/05 04:47:47;;;;;;;2.63;0.63;;;39.90;35.90;;;;;;5048981;28;20493;-73
2023/12/05 04:50:15;;;;;;;4.43;0.95;;;39.70;36.80;;;;;;5048288;28;20091;-72
2023/12/05 04:52:42;;;;;;;4.57;1.00;;;39.80;36.30;;;;;;5048397;28;20033;-74
2023/12/05 04:55:09;;;;;;;2.03;0.70;;;39.90;37.00;;;;;;5047913;28;20343;-71
2023/12/05 04:57:37;;;;;;;3.03;1.00;;;40.10;36.40;;;;;;5053163;28;20032;-72
2023/12/05 05:00:05;;;;;;;3.10;1.10;;;40.20;36.10;;;;;;5048838;28;20063;-72
2023/12/05 05:02:33;;;;;;;2.20;0.75;;;40.30;36.50;;;;;;5049496;28;20029;-73
2023/12/05 05:05:00;;;;;;;2.72;1.00;;;40.30;36.70;;;;;;5050563;28;20030;-74
2023/12/05 05:07:27;;;;;;;3.60;1.00;;;40.40;36.40;;;;;;5055943;28;20452;-72
2023/12/05 05:09:55;;;;;;;2.20;0.80;;;40.50;35.00;;;;;;5055266;28;20033;-71
2023/12/05 05:12:22;;;;;;;2.95;0.95;;;40.20;35.20;;;;;;5050278;28;20118;-72
2023/12/05 05:14:49;;;;;;;6.40;1.10;;;40.10;35.10;;;;;;5052634;28;20128;-72
2023/12/05 05:17:17;;;;;;;4.72;1.02;;;40.00;35.00;;;;;;5054282;28;20017;-73
2023/12/05 05:19:44;;;;;;;2.88;1.17;;;39.80;35.10;;;;;;5052683;28;20159;-73
2023/12/05 05:22:11;;;;;;;2.72;0.80;;;39.80;35.50;;;;;;5047720;28;20078;-73
2023/12/05 05:24:39;;;;;;;3.38;1.00;;;39.40;35.60;;;;;;5052329;28;20488;-72
2023/12/05 05:27:06;;;;;;;4.70;1.35;;;39.40;36.80;;;;;;5056435;28;20043;-71
2023/12/05 05:29:34;;;;;;;2.85;1.08;;;39.50;35.70;;;;;;5054559;28;20811;-72
2023/12/05 05:32:01;;;;;;;4.75;1.23;;;39.60;35.40;;;;;;5054397;28;20562;-72
2023/12/05 05:34:28;;;;;;;4.88;0.90;;;39.70;35.40;;;;;;5050073;28;20031;-72
2023/12/05 05:36:56;;;;;;;4.28;1.00;;;39.70;35.60;;;;;;5054728;28;20444;-75
2023/12/05 05:39:23;;;;;;;5.22;0.93;;;39.60;35.70;;;;;;5052245;28;20036;-72
2023/12/05 05:41:50;;;;;;;1.67;0.90;;;39.80;35.30;;;;;;5047268;28;20033;-72
2023/12/05 05:44:18;;;;;;;2.25;0.93;;;39.80;35.90;;;;;;5057414;28;20025;-72
2023/12/05 05:46:45;;;;;;;1.35;0.80;;;39.70;34.90;;;;;;5045830;28;20036;-72
2023/12/05 05:49:13;;;;;;;2.55;0.90;;;39.60;35.50;;;;;;5047619;28;20071;-72
2023/12/05 05:51:40;;;;;;;5.88;1.02;;;39.60;35.50;;;;;;5040482;28;20045;-73
2023/12/05 05:54:07;;;;;;;6.07;1.42;;;39.70;35.30;;;;;;5069583;28;20433;-72
2023/12/05 05:56:41;;;;;;;5.30;0.93;;;39.60;35.20;;;;;;5046258;28;21363;-72
2023/12/05 05:59:08;;;;;;;4.50;1.17;;;39.40;35.40;;;;;;5041770;28;20063;-72
2023/12/05 06:01:35;;;;;;;1.77;0.93;;;39.50;35.90;;;;;;5056862;28;20573;-72
2023/12/05 06:04:03;;;;;;;2.70;0.60;;;39.60;35.30;;;;;;5042537;28;20032;-72
2023/12/05 06:06:32;;;;;;;3.78;1.08;;;39.70;35.10;;;;;;5046042;28;20025;-72
2023/12/05 06:08:59;;;;;;;2.53;0.75;;;39.40;35.00;;;;;;5042361;28;20539;-71
2023/12/05 06:11:26;;;;;;;5.78;1.10;;;39.10;35.40;;;;;;5044012;28;20045;-72
2023/12/05 06:13:54;;;;;;;3.58;0.90;;;39.10;36.10;;;;;;5043861;28;20033;-72
2023/12/05 06:16:22;;;;;;;4.65;1.20;;;39.20;35.40;;;;;;5039036;28;20033;-71
2023/12/05 06:18:49;;;;;;;2.72;0.90;;;39.30;35.90;;;;;;5044856;28;20035;-74
2023/12/05 06:21:17;;;;;;;2.15;0.95;;;39.40;35.10;;;;;;5040322;28;20036;-73
2023/12/05 06:23:44;;;;;;;2.22;1.10;;;39.30;36.00;;;;;;5044594;28;20025;-73
2023/12/05 06:26:12;;;;;;;3.72;1.05;;;39.30;35.60;;;;;;5054384;28;20036;-71
2023/12/05 06:28:39;;;;;;;3.17;0.80;;;39.40;36.20;;;;;;5047700;28;20033;-73
2023/12/05 06:31:07;;;;;;;2.42;1.00;;;39.40;36.60;;;;;;5047568;28;20055;-71
2023/12/05 06:33:35;;;;;;;4.05;1.15;;;39.40;35.70;;;;;;5052532;28;20022;-71
2023/12/05 06:36:02;;;;;;;4.60;1.20;;;39.30;35.50;;;;;;5047729;28;20386;-71
2023/12/05 06:38:30;;;;;;;2.15;0.93;;;39.20;35.90;;;;;;5050935;28;20485;-72
2023/12/05 06:40:57;;;;;;;2.80;1.00;;;39.20;35.40;;;;;;5052287;28;20048;-75
2023/12/05 06:43:25;;;;;;;2.85;1.20;;;39.20;35.40;;;;;;5058518;28;20017;-72
2023/12/05 06:45:52;;;;;;;5.13;1.10;;;38.90;36.00;;;;;;5050427;28;20114;-74
2023/12/05 06:48:20;;;;;;;6.35;1.05;;;38.60;35.80;;;;;;5056007;28;20032;-72
2023/12/05 06:50:48;;;;;;;3.20;0.77;;;38.70;35.70;;;;;;5046703;28;20036;-72
2023/12/05 06:53:19;;;;;;;3.40;1.80;;;38.60;35.70;;;;;;5045885;28;20032;-73
2023/12/05 06:55:49;;;;;;;3.95;2.17;;;38.60;35.80;;;;;;5045559;28;20044;-73
2023/12/05 06:58:20;;;;;;;3.08;1.00;;;38.50;37.00;;;;;;5046620;28;20107;-72
2023/12/05 07:00:48;;;;;;;2.88;1.20;;;38.40;36.20;;;;;;5048636;28;20030;-72
2023/12/05 07:03:15;;;;;;;1.35;0.85;;;38.40;36.70;;;;;;5048163;28;20036;-73
2023/12/05 07:05:45;;;;;;;2.55;0.90;;;38.30;37.20;;;;;;5045094;28;20025;-73
2023/12/05 07:08:13;;;;;;;4.13;1.33;;;38.20;37.30;;;;;;5053306;28;20513;-72
2023/12/05 07:10:46;;;;;;;3.05;0.80;;;38.00;38.30;;;;;;5050422;28;20049;-73
2023/12/05 07:13:14;;;;;;;3.30;0.85;;;38.00;37.20;;;;;;5051113;28;20019;-72
2023/12/05 07:15:42;;;;;;;2.25;0.95;;;38.00;37.50;;;;;;5047784;28;20070;-72
2023/12/05 07:18:09;;;;;;;1.90;0.80;;;37.90;38.10;;;;;;5053047;28;20369;-73
2023/12/05 07:20:37;;;;;;;2.72;1.10;;;37.80;37.50;;;;;;5047557;28;20032;-74
2023/12/05 07:23:05;;;;;;;3.92;1.00;;;37.80;38.30;;;;;;5060874;28;20089;-72
2023/12/05 07:25:32;;;;;;;3.78;1.48;;;37.70;37.80;;;;;;5051563;28;20027;-72
2023/12/05 07:27:59;;;;;;;4.28;1.33;;;37.90;39.20;;;;;;5046063;28;20025;-74
2023/12/05 07:30:28;;;;;;;5.75;1.50;;;38.10;42.20;;;;;;5045882;28;20386;-73
2023/12/05 07:32:55;;;;;;;4.95;1.40;;;38.10;42.60;;;;;;5051885;28;20033;-73
2023/12/05 07:35:25;;;;;;;5.15;1.63;;;37.90;42.70;;;;;;5047093;28;20199;-73
2023/12/05 07:37:52;;;;;;;4.10;1.20;;;37.70;42.60;;;;;;5046483;28;20044;-73
2023/12/05 07:40:20;;;;;;;5.57;1.42;;;37.70;42.80;;;;;;5045686;28;20021;-72
2023/12/05 07:42:48;;;;;;;6.75;1.30;;;37.50;43.40;;;;;;5037367;28;20029;-72
2023/12/05 07:45:16;;;;;;;5.57;1.20;;;37.30;43.10;;;;;;5046133;28;20017;-72
2023/12/05 07:47:46;;;;;;;4.97;1.17;;;37.20;43.10;;;;;;5048777;28;20105;-73
2023/12/05 07:50:17;;;;;;;4.45;1.38;;;37.20;43.10;;;;;;5035420;28;20120;-71
2023/12/05 07:52:52;;;;;;;4.20;1.38;;;36.90;43.40;;;;;;5051149;28;20017;-72
2023/12/05 07:55:20;;;;;;;9.15;1.40;;;36.60;43.70;;;;;;5041865;28;20032;-74
2023/12/05 07:57:50;;;;;;;6.85;1.60;;;36.50;44.10;;;;;;5049245;28;20044;-73
2023/12/05 08:00:19;;;;;;;5.93;1.35;;;36.50;44.70;;;;;;5051249;28;20044;-74
2023/12/05 08:02:50;;;;;;;4.30;1.52;;;36.50;45.40;;;;;;5048879;28;20462;-72
2023/12/05 08:05:18;;;;;;;4.10;1.40;;;36.50;44.90;;;;;;5048769;28;20076;-72
2023/12/05 08:07:45;;;;;;;3.00;1.05;;;36.40;44.60;;;;;;5060212;28;20104;-73
2023/12/05 08:10:17;;;;;;;3.25;1.30;;;36.30;45.00;;;;;;5045203;28;20106;-73
2023/12/05 08:12:44;;;;;;;5.18;1.45;;;36.20;45.00;;;;;;5044392;28;20584;-72
2023/12/05 08:15:12;;;;;;;7.97;1.33;;;36.00;45.20;;;;;;5046211;28;20465;-73
2023/12/05 08:17:39;;;;;;;17.38;1.85;;;35.90;46.00;;;;;;5050887;28;20489;-72
2023/12/05 08:20:07;;;;;;;4.43;1.00;;;35.70;46.90;;;;;;5049020;28;20029;-72
2023/12/05 08:22:35;;;;;;;7.32;1.50;;;35.50;47.50;;;;;;5052992;28;20117;-73
2023/12/05 08:25:02;;;;;;;5.97;1.10;;;35.40;48.30;;;;;;5041087;28;20021;-71
2023/12/05 08:27:33;;;;;;;5.63;1.50;;;35.30;48.90;;;;;;5048676;28;20040;-72
2023/12/05 08:30:02;;;;;;;7.15;1.40;;;35.00;49.40;;;;;;5051588;28;20032;-73
2023/12/05 08:32:30;;;;;;;4.60;1.20;;;34.80;50.00;;;;;;5044978;28;20041;-72
2023/12/05 08:34:58;;;;;;;6.25;1.08;;;34.60;50.20;;;;;;5048487;28;20033;-72
2023/12/05 08:37:27;;;;;;;8.55;1.60;;;34.50;50.50;;;;;;5057715;28;20377;-73
2023/12/05 08:39:54;;;;;;;4.35;1.20;;;34.40;50.90;;;;;;5055009;28;20102;-72
2023/12/05 08:42:22;;;;;;;6.93;1.60;;;34.20;51.30;;;;;;5049692;28;20030;-73
2023/12/05 08:44:49;;;;;;;10.60;1.60;;;34.00;51.60;;;;;;5056415;28;20378;-72
2023/12/05 08:47:17;;;;;;;10.10;1.80;;;33.90;53.00;;;;;;5052709;28;20103;-73
2023/12/05 08:49:44;;;;;;;19.90;2.45;;;33.80;53.10;;;;;;5054049;28;20027;-73
2023/12/05 08:52:12;;;;;;;18.10;1.98;;;33.80;53.10;;;;;;5048787;28;20037;-72
2023/12/05 08:54:39;;;;;;;12.77;1.60;;;33.60;53.10;;;;;;5053657;28;20025;-73
2023/12/05 08:57:07;;;;;;;8.65;1.23;;;33.50;52.90;;;;;;5044845;28;20063;-72
2023/12/05 08:59:34;;;;;;;8.93;1.27;;;33.40;52.70;;;;;;5046667;28;20041;-71
2023/12/05 09:02:01;;;;;;;13.60;1.80;;;33.30;53.00;;;;;;5046514;28;20498;-72
2023/12/05 09:04:29;;;;;;;11.60;2.10;;;33.20;53.10;;;;;;5047831;28;20056;-71
2023/12/05 09:06:56;;;;;;;10.93;2.13;;;33.10;53.50;;;;;;5047279;28;20087;-72
2023/12/05 09:09:24;;;;;;;12.35;1.88;;;33.00;53.30;;;;;;5043912;28;20519;-72
2023/12/05 09:11:51;;;;;;;10.82;2.40;;;32.90;53.40;;;;;;5044323;28;20095;-72
2023/12/05 09:14:21;;;;;;;9.85;2.10;;;32.80;54.10;;;;;;5051649;28;20023;-72
2023/12/05 09:16:49;;;;;;;11.95;1.88;;;32.70;54.40;;;;;;5041843;28;20051;-72
2023/12/05 09:19:16;;;;;;;9.88;2.20;;;32.60;54.70;;;;;;5053758;28;20028;-72
2023/12/05 09:21:44;;;;;;;12.52;1.38;;;32.40;54.80;;;;;;5050065;28;20560;-71
2023/12/05 09:24:11;;;;;;;6.30;1.33;;;32.30;56.00;;;;;;5044261;28;20111;-72
2023/12/05 09:26:38;;;;;;;7.55;1.77;;;32.20;54.00;;;;;;5050853;28;20032;-72
2023/12/05 09:29:06;;;;;;;4.13;1.42;;;32.10;53.30;;;;;;5063049;28;20034;-72
2023/12/05 09:31:33;;;;;;;5.07;1.23;;;32.20;52.80;;;;;;5056179;28;20401;-72
2023/12/05 09:34:05;;;;;;;5.30;1.42;;;32.20;52.70;;;;;;5059225;28;20029;-73
2023/12/05 09:36:32;;;;;;;3.78;1.25;;;32.30;52.50;;;;;;5050019;28;20025;-72
2023/12/05 09:38:59;;;;;;;3.75;1.25;;;32.30;52.70;;;;;;5051226;28;20036;-74
2023/12/05 09:41:27;;;;;;;5.85;1.63;;;32.20;53.20;;;;;;5053013;28;20172;-73
2023/12/05 09:43:58;;;;;;;5.25;1.50;;;32.20;53.50;;;;;;5058185;28;20025;-72
2023/12/05 09:46:27;;;;;;;5.82;1.20;;;32.10;53.60;;;;;;5052536;28;20423;-73
2023/12/05 09:49:00;;;;;;;8.23;2.00;;;32.00;53.80;;;;;;5049212;28;20120;-74
2023/12/05 09:51:29;;;;;;;8.70;2.33;;;31.90;54.10;;;;;;5046595;28;20501;-71
2023/12/05 09:54:12;;;;;;;10.48;2.55;;;31.80;54.70;;;;;;5054701;28;20040;-71
2023/12/05 09:56:45;;;;;;;8.13;3.08;;;31.70;55.00;;;;;;5053959;28;20371;-69
2023/12/05 09:59:13;;;;;;;12.18;4.05;;;31.70;55.30;;;;;;5053291;28;20131;-71
2023/12/05 10:01:43;;;;;;;13.13;3.65;;;31.60;55.30;;;;;;5052199;28;20086;-71
2023/12/05 10:04:17;;;;;;;15.43;3.47;;;31.60;55.60;;;;;;5050611;28;20079;-70
2023/12/05 10:06:48;;;;;;;12.27;2.90;;;31.60;56.40;;;;;;5050772;28;20032;-71
2023/12/05 10:09:20;;;;;;;7.65;2.72;;;31.50;56.60;;;;;;5045123;28;20032;-72
2023/12/05 10:11:51;;;;;;;11.93;2.25;;;31.50;57.00;;;;;;5052820;28;20036;-70
2023/12/05 10:14:21;;;;;;;4.22;1.70;;;31.50;57.10;;;;;;5047897;28;20025;-72
2023/12/05 10:16:53;;;;;;;8.02;1.52;;;31.50;57.30;;;;;;5047046;28;20033;-71
2023/12/05 10:19:27;;;;;;;7.75;2.10;;;31.30;57.80;;;;;;5047157;28;20033;-70
2023/12/05 10:22:04;;;;;;;4.80;1.60;;;31.10;58.50;;;;;;5051459;28;20036;-71
2023/12/05 10:24:48;;;;;;;6.25;1.88;;;31.00;58.80;;;;;;5052175;28;20486;-69
2023/12/05 10:27:16;;;;;;;8.88;1.75;;;31.00;59.30;;;;;;5044451;28;20486;-70
2023/12/05 10:29:44;;;;;;;6.28;1.90;;;30.90;59.90;;;;;;5040423;28;20020;-70
2023/12/05 10:32:23;;;;;;;6.53;1.50;;;30.80;60.60;;;;;;5043012;28;20052;-71
2023/12/05 10:34:56;;;;;;;9.57;1.88;;;30.70;60.50;;;;;;5051699;28;20025;-70
2023/12/05 10:37:31;;;;;;;4.65;1.58;;;30.80;61.00;;;;;;5045851;28;20025;-70
2023/12/05 10:39:59;;;;;;;8.23;1.98;;;30.80;61.30;;;;;;5043536;28;20037;-69
2023/12/05 10:42:31;;;;;;;5.47;1.70;;;30.60;61.70;;;;;;5045063;28;20553;-70
2023/12/05 10:45:05;;;;;;;8.63;1.75;;;30.50;62.20;;;;;;5044211;28;20028;-69
2023/12/05 10:47:34;;;;;;;5.85;1.63;;;30.50;62.60;;;;;;5055388;28;20029;-69
2023/12/05 10:50:05;;;;;;;7.45;1.98;;;30.40;63.20;;;;;;5050104;28;20124;-69
2023/12/05 10:52:34;;;;;;;6.63;2.00;;;30.30;63.50;;;;;;5050393;28;20048;-70
2023/12/05 10:55:01;;;;;;;9.95;2.08;;;30.30;63.60;;;;;;5050025;28;20024;-71
2023/12/05 10:57:39;;;;;;;11.95;2.15;;;30.30;64.20;;;;;;5053109;28;20056;-68
2023/12/05 11:00:10;;;;;;;5.28;1.90;;;30.20;64.60;;;;;;5054085;28;20044;-69
2023/12/05 11:02:39;;;;;;;7.00;1.75;;;30.20;65.00;;;;;;5052403;28;20029;-69
2023/12/05 11:05:19;;;;;;;7.18;2.00;;;30.00;65.60;;;;;;5050192;28;20478;-70
2023/12/05 11:07:46;;;;;;;8.65;2.42;;;30.00;66.10;;;;;;5051951;28;20121;-69
2023/12/05 11:10:16;;;;;;;8.10;2.47;;;29.90;66.40;;;;;;5051673;28;20021;-70
2023/12/05 11:12:49;;;;;;;7.15;1.90;;;29.80;66.80;;;;;;5051444;28;20044;-70
2023/12/05 11:15:21;;;;;;;6.63;1.90;;;29.80;67.20;;;;;;5046274;28;20116;-70
2023/12/05 11:18:00;;;;;;;9.82;2.17;;;29.80;67.70;;;;;;5053247;28;20106;-70
2023/12/05 11:20:56;;;;;;;7.00;2.03;;;29.90;67.80;;;;;;5066751;28;20025;-69
2023/12/05 11:23:55;;;;;;;8.50;2.00;;;29.70;68.30;;;;;;5051250;28;20493;-70
2023/12/05 11:26:23;;;;;;;8.48;2.28;;;29.60;68.90;;;;;;5053996;28;20075;-69
2023/12/05 11:29:03;;;;;;;5.95;2.20;;;29.50;69.40;;;;;;5053627;28;20033;-70
2023/12/05 11:31:55;;;;;;;5.65;2.00;;;29.50;69.90;;;;;;5054271;28;20133;-70
2023/12/05 11:34:51;;;;;;;7.20;1.75;;;29.60;69.80;;;;;;5043634;28;20029;-76
2023/12/05 11:37:49;;;;;;;7.82;2.25;;;29.60;70.50;;;;;;5047570;28;20040;-72
2023/12/05 11:40:16;;;;;;;11.75;2.15;;;29.50;71.00;;;;;;5053060;28;20032;-72
2023/12/05 11:43:09;;;;;;;5.43;2.25;;;29.40;71.30;;;;;;5047950;28;20611;-70
2023/12/05 11:45:41;;;;;;;6.70;2.17;;;29.30;71.80;;;;;;5041888;28;20546;-72
2023/12/05 11:48:15;;;;;;;11.05;2.00;;;29.20;72.50;;;;;;5048934;28;20128;-71
2023/12/05 11:50:44;;;;;;;5.75;2.05;;;29.10;72.70;;;;;;5048485;28;20040;-73
2023/12/05 11:53:17;;;;;;;9.13;2.30;;;29.20;73.20;;;;;;5045808;28;20029;-72
2023/12/05 11:55:47;;;;;;;6.05;2.28;;;29.20;73.60;;;;;;5044635;28;20092;-72
2023/12/05 11:58:30;;;;;;;9.77;2.53;;;29.10;74.00;;;;;;5046840;28;20048;-71
2023/12/05 12:01:10;;;;;;;8.93;2.40;;;29.00;74.40;;;;;;5048898;28;20029;-71
2023/12/05 12:03:52;;;;;;;5.88;2.20;;;29.00;74.40;;;;;;5044661;28;20126;-71
2023/12/05 12:06:23;;;;;;;11.60;2.08;;;29.10;74.40;;;;;;5047353;28;20394;-70
2023/12/05 12:08:53;;;;;;;6.53;1.88;;;28.90;75.00;;;;;;5051823;28;20048;-71
2023/12/05 12:11:24;;;;;;;7.70;2.45;;;28.80;75.40;;;;;;5050338;28;20052;-70
2023/12/05 12:14:10;;;;;;;7.45;2.25;;;28.70;76.00;;;;;;5053910;28;20061;-71
2023/12/05 12:16:39;;;;;;;6.75;1.90;;;28.70;76.50;;;;;;5061349;28;20099;-72
2023/12/05 12:19:15;;;;;;;9.48;2.10;;;28.60;76.90;;;;;;5054640;28;20039;-71
2023/12/05 12:21:44;;;;;;;8.32;2.28;;;28.50;77.20;;;;;;5051680;28;20026;-72
2023/12/05 12:24:22;;;;;;;6.55;2.05;;;28.50;77.30;;;;;;5054666;28;20032;-71
2023/12/05 12:26:59;;;;;;;9.40;2.03;;;28.50;77.90;;;;;;5052875;28;20033;-72
2023/12/05 12:29:27;;;;;;;5.87;2.17;;;28.50;78.00;;;;;;5050706;28;20029;-71
2023/12/05 12:32:15;;;;;;;10.25;2.25;;;28.50;78.10;;;;;;5051996;28;20294;-71
2023/12/05 12:34:45;;;;;;;9.20;2.55;;;28.40;78.80;;;;;;5056991;28;20088;-72
2023/12/05 12:37:13;;;;;;;7.47;2.38;;;28.30;79.30;;;;;;5058811;28;20028;-72
2023/12/05 12:39:43;;;;;;;6.22;2.25;;;28.20;79.30;;;;;;5055980;28;20032;-71
2023/12/05 12:42:11;;;;;;;9.27;1.88;;;28.20;79.60;;;;;;5053315;28;20417;-71
2023/12/05 12:44:39;;;;;;;6.75;2.22;;;28.10;80.00;;;;;;5056557;28;20462;-71
2023/12/05 12:47:06;;;;;;;12.50;2.38;;;28.00;80.50;;;;;;5054659;28;20037;-71
2023/12/05 12:49:33;;;;;;;10.88;2.22;;;28.00;80.70;;;;;;5067448;28;20032;-71
2023/12/05 12:52:01;;;;;;;12.75;2.83;;;28.00;80.90;;;;;;5056294;28;20041;-71
2023/12/05 12:54:29;;;;;;;5.53;1.65;;;27.90;81.10;;;;;;5058155;28;20021;-71
2023/12/05 12:56:56;;;;;;;4.55;1.85;;;27.80;81.40;;;;;;5049311;28;20072;-72
2023/12/05 12:59:26;;;;;;;7.38;2.15;;;27.80;81.80;;;;;;5051526;28;20095;-71